Time;durP1;ratioP1;P1;durP2;ratioP2;P2;SDS_P1;SDS_P2;PMS_P1;PMS_P2;Temp;Humidity;BMP_temperature;BMP_pressure;BME280_temperature;BME280_humidity;BME280_pressure;Samples;Min_cycle;Max_cycle;Signal;HPM_P1;HPM_P2
2023/09/25 00:08:35;;;;;;;;;;;;;;;;;;;;;
2023/09/25 00:13:13;;;;;;;18.90;12.20;;;;;;;11.95;66.87;101699.98;110934;1257;22003;-78
2023/09/25 00:18:05;;;;;;;;;;;;;;;;;;;;;
2023/09/25 00:46:05;;;;;;;12.10;10.90;;;;;;;12.35;66.52;101709.02;111042;1260;23725;-78
2023/09/25 00:55:11;;;;;;;;;;;;;;;;;;;;;
2023/09/25 01:03:43;;;;;;;14.60;10.70;;;;;;;11.31;69.28;101688.38;109710;1269;21963;-78
2023/09/25 01:08:12;;;;;;;12.30;11.10;;;;;;;11.19;69.66;101688.95;109057;1275;22055;-80
2023/09/25 01:16:36;;;;;;;;;;;;;;;;;;;;;
2023/09/25 01:20:24;;;;;;;14.60;13.30;;;;;;;11.17;70.20;101680.44;108843;1279;21985;-78
2023/09/25 01:24:03;;;;;;;;;;;;;;;;;;;;;
2023/09/25 01:28:49;;;;;;;;;;;;;;;;;;;;;
2023/09/25 01:33:37;;;;;;;;;;;;;;;;;;;;;
2023/09/25 01:37:44;;;;;;;;;;;;;;;;;;;;;
2023/09/25 01:41:05;;;;;;;16.00;14.60;;;;;;;11.05;71.83;101702.45;109029;1277;23688;-80
2023/09/25 01:44:33;;;;;;;18.70;16.80;;;;;;;11.09;71.88;101707.95;109126;1277;23125;-80
2023/09/25 01:47:57;;;;;;;20.30;17.90;;;;;;;11.13;71.99;101708.05;109510;1274;22038;-79
2023/09/25 01:51:43;;;;;;;;;;;;;;;;;;;;;
2023/09/25 01:55:05;;;;;;;19.50;16.90;;;;;;;11.21;72.19;101700.94;109495;1273;23631;-79
2023/09/25 02:02:42;;;;;;;17.20;15.60;;;;;;;11.32;72.51;101692.52;109052;1274;24332;-79
2023/09/25 02:05:32;;;;;;;17.20;15.60;;;;;;;11.37;72.45;101688.41;109202;1271;22007;-79
2023/09/25 02:09:45;;;;;;;;;;;;;;;;;;;;;
2023/09/25 02:12:38;;;;;;;19.30;17.40;;;;;;;11.51;72.92;101681.51;108935;1276;21990;-79
2023/09/25 02:15:52;;;;;;;16.50;15.00;;;;;;;11.57;73.04;101671.29;108939;1280;22794;-79
2023/09/25 02:19:03;;;;;;;;;;;;;;;;;;;;;
2023/09/25 02:22:23;;;;;;;14.60;13.20;;;;;;;11.78;73.09;101680.61;108301;1284;21992;-79
2023/09/25 02:26:33;;;;;;;;;;;;;;;;;;;;;
2023/09/25 02:29:44;;;;;;;15.40;13.80;;;;;;;11.92;73.17;101681.38;107817;1296;23071;-79
2023/09/25 02:32:57;;;;;;;15.40;13.80;;;;;;;12.00;72.98;101676.84;107644;1296;23631;-81
2023/09/25 02:36:25;;;;;;;;;;;;;;;;;;;;;
2023/09/25 02:42:38;;;;;;;11.80;10.70;;;;;;;12.15;72.61;101667.44;107759;1294;22007;-78
2023/09/25 02:45:22;;;;;;;11.30;10.20;;;;;;;12.19;72.54;101662.79;107921;1288;23735;-78
2023/09/25 02:48:10;;;;;;;12.50;10.90;;;;;;;12.25;72.48;101664.73;108314;1284;21999;-79
2023/09/25 02:50:49;;;;;;;13.00;10.50;;;;;;;12.29;72.27;101659.05;108629;1283;21992;-78
2023/09/25 02:53:25;;;;;;;12.40;11.10;;;;;;;12.33;72.24;101659.48;108557;1283;22014;-80
2023/09/25 02:56:03;;;;;;;15.00;11.50;;;;;;;12.35;72.19;101657.52;108439;1283;22163;-81
2023/09/25 02:59:13;;;;;;;10.30;9.20;;;;;;;12.37;71.99;101657.13;108667;1283;23072;-80
2023/09/25 03:02:20;;;;;;;;;;;;;;;;;;;;;
2023/09/25 03:05:14;;;;;;;13.10;9.10;;;;;;;12.38;72.00;101648.71;108860;1273;22031;-81
2023/09/25 03:08:31;;;;;;;10.30;9.10;;;;;;;12.37;71.93;101653.81;109114;1276;21993;-80
2023/09/25 03:11:26;;;;;;;9.80;8.70;;;;;;;12.38;71.97;101657.45;108688;1277;22953;-79
2023/09/25 03:14:19;;;;;;;10.30;9.20;;;;;;;12.39;71.94;101653.41;109217;1276;23735;-78
2023/09/25 03:18:17;;;;;;;11.40;8.80;;;;;;;12.39;71.96;101649.23;109023;1276;21993;-79
2023/09/25 03:25:26;;;;;;;11.60;10.40;;;;;;;12.38;71.99;101649.77;108489;1282;23185;-78
2023/09/25 03:28:41;;;;;;;10.30;9.20;;;;;;;12.39;72.04;101647.13;108576;1278;22042;-82
2023/09/25 03:32:32;;;;;;;10.90;9.90;;;;;;;12.39;71.97;101650.45;108468;1284;21997;-78
2023/09/25 03:35:43;;;;;;;;;;;;;;;;;;;;;
2023/09/25 03:46:33;;;;;;;12.70;11.30;;;;;;;12.42;71.98;101662.59;108285;1289;23627;-80
2023/09/25 03:49:27;;;;;;;12.60;11.40;;;;;;;12.45;71.95;101664.10;108278;1289;21996;-80
2023/09/25 03:52:46;;;;;;;13.00;11.40;;;;;;;12.46;71.91;101664.06;108426;1286;21992;-79
2023/09/25 03:56:04;;;;;;;12.80;11.30;;;;;;;12.46;71.73;101661.96;108397;1273;23822;-78
2023/09/25 03:58:55;;;;;;;15.80;10.20;;;;;;;12.46;71.73;101659.37;108160;1286;22004;-80
2023/09/25 04:01:51;;;;;;;11.60;10.30;;;;;;;12.47;71.84;101656.36;107900;1280;22020;-79
2023/09/25 04:05:13;;;;;;;12.70;11.50;;;;;;;12.49;71.99;101660.34;108227;1288;23045;-79
2023/09/25 04:08:40;;;;;;;13.00;11.80;;;;;;;12.44;71.81;101662.36;108415;1282;21994;-78
2023/09/25 04:11:38;;;;;;;13.20;11.30;;;;;;;12.42;71.77;101658.06;108562;1276;22003;-77
2023/09/25 04:14:11;;;;;;;13.40;11.70;;;;;;;12.42;71.85;101661.55;108499;1282;21999;-77
2023/09/25 04:16:52;;;;;;;13.30;11.00;;;;;;;12.44;71.96;101663.23;108579;1276;21985;-77
2023/09/25 04:19:27;;;;;;;12.10;11.00;;;;;;;12.44;71.91;101662.38;109171;1269;21983;-78
2023/09/25 04:22:06;;;;;;;10.80;9.80;;;;;;;12.42;71.71;101660.66;109893;1260;22002;-78
2023/09/25 04:24:51;;;;;;;10.80;9.60;;;;;;;12.40;71.85;101662.63;110023;1264;22034;-76
2023/09/25 04:27:38;;;;;;;12.30;9.60;;;;;;;12.38;71.98;101664.45;109357;1272;23729;-78
2023/09/25 04:30:15;;;;;;;10.00;9.80;;;;;;;12.38;72.01;101663.56;109266;1272;23375;-77
2023/09/25 04:33:04;;;;;;;10.70;9.50;;;;;;;12.37;72.13;101663.76;109775;1268;23580;-78
2023/09/25 04:35:41;;;;;;;10.90;9.50;;;;;;;12.36;72.20;101667.63;109774;1269;22656;-77
2023/09/25 04:38:18;;;;;;;;;;;;;;;12.38;72.20;101668.46;109243;1273;22058;-80
2023/09/25 04:40:52;;;;;;;11.90;9.10;;;;;;;12.32;72.34;101668.24;108805;1278;23746;-78
2023/09/25 04:43:29;;;;;;;10.70;9.60;;;;;;;12.34;72.39;101667.85;108828;1278;23640;-78
2023/09/25 04:46:16;;;;;;;11.60;10.10;;;;;;;12.36;72.35;101667.64;109261;1272;23784;-78
2023/09/25 04:49:03;;;;;;;13.20;10.60;;;;;;;12.37;72.36;101667.77;109222;1271;21987;-79
2023/09/25 04:51:37;;;;;;;11.20;10.00;;;;;;;12.39;72.29;101658.13;108913;1278;22542;-78
2023/09/25 04:54:29;;;;;;;12.10;9.90;;;;;;;12.40;72.34;101656.34;108817;1280;22417;-80
2023/09/25 04:57:40;;;;;;;12.90;10.00;;;;;;;12.40;72.46;101654.80;108820;1280;23720;-78
2023/09/25 05:00:27;;;;;;;10.00;9.10;;;;;;;12.40;72.38;101653.39;109298;1275;22004;-79
2023/09/25 05:03:00;;;;;;;16.20;10.00;;;;;;;12.42;72.37;101652.98;109007;1274;23071;-79
2023/09/25 05:05:36;;;;;;;12.20;11.00;;;;;;;12.43;72.37;101654.52;109318;1273;22011;-80
2023/09/25 05:08:49;;;;;;;9.00;8.20;;;;;;;12.42;72.60;101655.08;109443;1272;23645;-79
2023/09/25 05:11:52;;;;;;;10.00;8.30;;;;;;;12.45;72.84;101660.77;110126;1264;23013;-81
2023/09/25 05:14:42;;;;;;;9.90;8.50;;;;;;;12.51;72.87;101659.92;109712;1270;22004;-79
2023/09/25 05:17:23;;;;;;;12.40;9.70;;;;;;;12.56;72.90;101657.86;109247;1271;22647;-80
2023/09/25 05:20:04;;;;;;;12.00;9.30;;;;;;;12.62;72.82;101660.86;109571;1271;21983;-81
2023/09/25 05:23:23;;;;;;;12.50;8.60;;;;;;;12.64;72.80;101658.19;110127;1266;23778;-80
2023/09/25 05:26:05;;;;;;;9.40;8.60;;;;;;;12.67;72.80;101661.42;110141;1261;23715;-81
2023/09/25 05:29:02;;;;;;;11.00;9.00;;;;;;;12.69;72.72;101662.25;110094;1267;21980;-80
2023/09/25 05:31:47;;;;;;;10.90;8.40;;;;;;;12.73;72.70;101668.10;109942;1261;21990;-80
2023/09/25 05:35:22;;;;;;;9.80;8.30;;;;;;;12.76;72.92;101670.48;110465;1261;21970;-79
2023/09/25 05:38:02;;;;;;;10.30;8.40;;;;;;;12.82;72.91;101666.30;110565;1256;21979;-79
2023/09/25 05:40:47;;;;;;;10.90;8.60;;;;;;;12.88;72.91;101663.17;110148;1264;22005;-79
2023/09/25 05:43:24;;;;;;;9.10;7.60;;;;;;;12.95;72.88;101660.00;110085;1265;22334;-81
2023/09/25 05:46:07;;;;;;;9.40;8.30;;;;;;;13.01;72.71;101655.98;110619;1259;23780;-82
2023/09/25 05:48:53;;;;;;;10.70;8.40;;;;;;;13.14;72.77;101663.88;110933;1259;23879;-81
2023/09/25 05:51:33;;;;;;;9.20;7.90;;;;;;;13.23;72.84;101663.42;110534;1263;22247;-79
2023/09/25 05:54:11;;;;;;;10.80;8.90;;;;;;;13.32;72.50;101660.78;110509;1257;23638;-79
2023/09/25 05:56:44;;;;;;;9.70;7.90;;;;;;;13.40;72.42;101664.56;109871;1262;23628;-81
2023/09/25 05:59:23;;;;;;;8.90;8.00;;;;;;;13.48;72.32;101665.05;109839;1266;22008;-81
2023/09/25 06:02:03;;;;;;;11.10;8.00;;;;;;;13.55;72.31;101668.15;109786;1270;23731;-79
2023/09/25 06:04:49;;;;;;;8.30;7.50;;;;;;;13.61;72.03;101666.06;109145;1276;23647;-78
2023/09/25 06:07:35;;;;;;;9.40;7.40;;;;;;;13.70;71.98;101665.98;109310;1276;23104;-80
2023/09/25 06:10:29;;;;;;;12.30;7.90;;;;;;;13.80;71.91;101673.17;109337;1273;21985;-78
2023/09/25 06:13:10;;;;;;;;;;;;;;;;;;;;;
2023/09/25 06:16:14;;;;;;;7.60;6.80;;;;;;;13.96;71.51;101672.36;109568;1271;21983;-83
2023/09/25 06:19:07;;;;;;;8.80;7.10;;;;;;;14.04;71.38;101674.91;109304;1276;21980;-79
2023/09/25 06:22:12;;;;;;;8.10;6.70;;;;;;;14.08;71.02;101671.45;110030;1264;22063;-82
2023/09/25 06:25:20;;;;;;;8.30;7.40;;;;;;;14.10;70.86;101675.93;110354;1263;22005;-83
2023/09/25 06:28:26;;;;;;;;;;;;;;;;;;;;;
2023/09/25 06:31:43;;;;;;;8.30;6.90;;;;;;;14.20;70.65;101676.00;110781;1258;22025;-81
2023/09/25 06:35:02;;;;;;;10.80;6.80;;;;;;;14.19;70.42;101672.48;110994;1258;23796;-83
2023/09/25 06:37:59;;;;;;;8.50;6.80;;;;;;;14.23;70.23;101679.02;111051;1255;21967;-81
2023/09/25 06:40:58;;;;;;;;;;;;;;;;;;;;;
2023/09/25 06:48:25;;;;;;;;;;;;;;;;;;;;;
2023/09/25 06:52:04;;;;;;;10.50;7.70;;;;;;;14.26;70.54;101673.69;109359;1267;23045;-79
2023/09/25 06:55:36;;;;;;;;;;;;;;;;;;;;;
2023/09/25 06:58:58;;;;;;;7.10;6.10;;;;;;;14.49;70.77;101667.51;108396;1287;22135;-79
2023/09/25 07:02:15;;;;;;;7.00;5.70;;;;;;;14.64;70.59;101666.50;108015;1292;22047;-80
2023/09/25 07:05:11;;;;;;;6.50;5.90;;;;;;;14.77;70.56;101663.81;108083;1292;22179;-79
2023/09/25 07:08:08;;;;;;;;;;;;;;;;;;;;;
2023/09/25 07:10:56;;;;;;;8.50;5.90;;;;;;;15.06;70.11;101658.42;108178;1290;23743;-78
2023/09/25 07:13:39;;;;;;;8.00;5.80;;;;;;;15.21;70.04;101655.09;108265;1286;21991;-77
2023/09/25 07:16:47;;;;;;;11.10;6.50;;;;;;;15.51;69.41;101654.29;107704;1291;544981;-80
2023/09/25 07:19:56;;;;;;;9.40;6.90;;;;;;;15.63;69.31;101659.45;109313;1273;21985;-76
2023/09/25 07:23:02;;;;;;;8.00;6.70;;;;;;;15.86;69.74;101662.11;109294;1273;22744;-78
2023/09/25 07:26:34;;;;;;;13.30;5.60;;;;;;;16.38;69.86;101659.51;109653;1272;21984;-83
2023/09/25 07:29:25;;;;;;;6.50;5.70;;;;;;;16.71;68.80;101653.04;106043;1265;5274492;-82
2023/09/25 07:32:40;;;;;;;13.40;6.60;;;;;;;16.91;67.07;101658.54;110444;1259;23023;-81
2023/09/25 07:35:53;;;;;;;10.00;5.90;;;;;;;17.01;66.23;101664.93;110137;1265;22035;-81
2023/09/25 07:39:28;;;;;;;8.90;6.00;;;;;;;17.03;65.54;101665.05;110510;1264;22735;-80
2023/09/25 07:42:38;;;;;;;8.40;5.90;;;;;;;17.09;65.75;101667.23;110624;1260;22722;-83
2023/09/25 07:46:31;;;;;;;7.00;5.50;;;;;;;17.24;65.62;101667.10;109442;1274;21985;-82
2023/09/25 07:49:44;;;;;;;;;;;;;;;;;;;;;
2023/09/25 07:53:32;;;;;;;;;;;;;;;17.54;64.85;101672.60;109476;1274;22347;-83
2023/09/25 07:57:01;;;;;;;11.30;6.80;;;;;;;17.64;64.92;101673.56;109442;1271;23739;-83
2023/09/25 08:04:00;;;;;;;7.90;5.50;;;;;;;17.95;64.64;101674.07;108916;1276;22094;-81
2023/09/25 08:07:17;;;;;;;9.40;4.90;;;;;;;18.16;64.14;101671.30;109116;1276;23649;-81
2023/09/25 08:11:17;;;;;;;6.00;4.90;;;;;;;18.39;63.77;101672.66;109108;1276;23716;-83
2023/09/25 08:14:56;;;;;;;;;;;;;;;;;;;;;
2023/09/25 08:18:20;;;;;;;4.70;4.10;;;;;;;18.98;62.31;101672.17;109176;1276;24055;-82
2023/09/25 08:21:25;;;;;;;4.50;3.70;;;;;;;18.97;60.91;101674.15;109584;1268;23725;-82
2023/09/25 08:24:45;;;;;;;5.50;3.70;;;;;;;18.84;60.25;101673.59;109193;1276;22030;-82
2023/09/25 08:27:39;;;;;;;7.80;4.20;;;;;;;18.71;60.43;101675.45;109124;1277;23621;-81
2023/09/25 08:31:16;;;;;;;5.60;3.80;;;;;;;18.68;60.48;101679.66;109146;1277;22770;-81
2023/09/25 08:34:24;;;;;;;4.70;3.80;;;;;;;18.54;60.48;101682.81;108923;1280;21983;-85
2023/09/25 08:37:25;;;;;;;6.70;4.60;;;;;;;18.45;60.75;101682.39;108902;1280;21993;-81
2023/09/25 08:40:54;;;;;;;;;;;;;;;;;;;;;
2023/09/25 08:44:19;;;;;;;8.10;4.10;;;;;;;18.45;61.11;101683.08;109686;1270;22752;-81
2023/09/25 08:48:01;;;;;;;4.90;3.90;;;;;;;18.41;61.27;101676.77;109628;1270;21989;-83
2023/09/25 08:51:11;;;;;;;7.30;4.30;;;;;;;18.50;61.62;101675.98;109399;1274;22038;-83
2023/09/25 08:54:16;;;;;;;5.40;4.30;;;;;;;18.66;61.40;101681.67;109481;1274;22013;-80
2023/09/25 08:57:22;;;;;;;5.20;4.10;;;;;;;18.70;61.30;101678.48;109568;1265;23071;-82
2023/09/25 09:01:15;;;;;;;;;;;;;;;;;;;;;
2023/09/25 09:04:38;;;;;;;5.90;4.00;;;;;;;19.48;62.30;101670.89;109669;1271;22901;-81
2023/09/25 09:08:09;;;;;;;4.50;3.10;;;;;;;20.16;60.99;101669.79;109687;1271;22255;-78
2023/09/25 09:12:14;;;;;;;;;;;;;;;;;;;;;
2023/09/25 09:15:28;;;;;;;6.20;3.80;;;;;;;20.90;57.56;101667.81;110090;1267;21983;-84
2023/09/25 09:18:33;;;;;;;4.50;3.60;;;;;;;21.10;57.01;101660.39;110052;1267;22654;-86
2023/09/25 09:21:30;;;;;;;8.50;4.70;;;;;;;21.45;56.74;101640.89;109293;1273;23029;-86
2023/09/25 09:24:56;;;;;;;6.80;3.90;;;;;;;21.77;55.77;101641.16;109628;1267;23031;-87
2023/09/25 09:28:41;;;;;;;4.30;3.90;;;;;;;22.33;55.01;101643.39;110265;1267;21991;-87
2023/09/25 09:32:10;;;;;;;4.90;3.60;;;;;;;22.61;52.85;101642.23;109997;1267;21947;-87
2023/09/25 09:35:19;;;;;;;;;;;;;;;;;;;;;
2023/09/25 09:43:26;;;;;;;5.70;3.10;;;;;;;23.18;51.63;101623.86;110262;1270;23752;-86
2023/09/25 09:52:15;;;;;;;;;;;;;;;;;;;;;
2023/09/25 09:56:37;;;;;;;;;;;;;;;;;;;;;
2023/09/25 10:00:23;;;;;;;3.60;2.80;;;;;;;24.67;48.44;101605.05;108189;1293;23811;-88
2023/09/25 10:07:33;;;;;;;5.90;2.80;;;;;;;24.94;47.29;101597.13;107350;1300;22024;-87
2023/09/25 10:10:45;;;;;;;8.20;2.80;;;;;;;25.20;46.29;101605.42;107051;1305;22017;-81
2023/09/25 10:13:35;;;;;;;9.90;2.90;;;;;;;25.11;45.22;101592.93;106962;1301;22983;-83
2023/09/25 10:27:46;;;;;;;3.70;2.20;;;;;;;26.05;41.06;101586.63;108344;1283;548985;-83
2023/09/25 10:31:28;;;;;;;3.50;1.80;;;;;;;26.07;39.61;101582.26;106796;1249;5087660;-85
2023/09/25 10:34:45;;;;;;;3.00;2.20;;;;;;;25.77;40.85;101586.35;111062;1254;22271;-87
2023/09/25 10:38:27;;;;;;;;;;;;;;;;;;;;;
2023/09/25 10:42:26;;;;;;;5.80;2.60;;;;;;;25.52;41.79;101576.43;110606;1259;21958;-84
2023/09/25 10:46:10;;;;;;;;;;;;;;;;;;;;;
2023/09/25 10:49:48;;;;;;;4.40;2.20;;;;;;;25.21;42.60;101577.56;110163;1268;22556;-85
2023/09/25 10:53:32;;;;;;;5.70;2.80;;;;;;;24.64;42.97;101579.36;110080;1273;22474;-85
2023/09/25 10:56:58;;;;;;;4.50;2.30;;;;;;;24.15;43.82;101576.14;109635;1273;22003;-85
2023/09/25 11:00:09;;;;;;;2.80;2.10;;;;;;;23.73;44.73;101574.96;109519;1273;22958;-89
2023/09/25 11:03:56;;;;;;;;;;;;;;;;;;;;;
2023/09/25 11:19:14;;;;;;;5.50;2.30;;;;;;;24.22;43.77;101559.01;108411;1285;548017;-88
2023/09/25 11:26:46;;;;;;;3.70;2.10;;;;;;;23.55;45.57;101555.32;108944;1283;22010;-87
2023/09/25 11:33:54;;;;;;;3.30;2.20;;;;;;;23.41;46.56;101550.16;108482;1288;22018;-83
2023/09/25 11:37:04;;;;;;;4.80;2.50;;;;;;;23.43;46.07;101555.88;108525;1286;22020;-86
2023/09/25 11:40:37;;;;;;;4.80;2.40;;;;;;;23.20;45.89;101552.25;108506;1287;22459;-87
2023/09/25 11:47:11;;;;;;;;;;;;;;;;;;;;;
2023/09/25 11:50:33;;;;;;;2.60;2.30;;;;;;;22.69;47.03;101552.96;107534;1296;22029;-88
2023/09/25 11:53:17;;;;;;;5.20;2.10;;;;;;;22.63;47.06;101550.91;107574;1297;22465;-85
2023/09/25 11:56:16;;;;;;;3.50;2.80;;;;;;;22.53;47.57;101549.45;107973;1292;22024;-84
2023/09/25 11:59:55;;;;;;;3.60;2.10;;;;;;;22.43;47.56;101545.34;109067;1283;21988;-87
2023/09/25 12:02:55;;;;;;;4.50;2.40;;;;;;;22.29;47.89;101547.37;109245;1277;22008;-86
2023/09/25 12:05:45;;;;;;;2.70;2.30;;;;;;;22.20;48.27;101544.02;109048;1277;21994;-88
2023/09/25 12:08:38;;;;;;;5.10;3.00;;;;;;;22.17;48.45;101543.69;109050;1273;23621;-86
2023/09/25 12:11:41;;;;;;;5.00;2.50;;;;;;;22.22;48.65;101541.06;109927;1265;21971;-87
2023/09/25 12:14:26;;;;;;;4.00;2.30;;;;;;;22.27;48.34;101543.80;110621;1264;22890;-84
2023/09/25 12:18:02;;;;;;;9.20;2.50;;;;;;;22.29;48.42;101542.92;110634;1264;21965;-86
2023/09/25 12:21:07;;;;;;;4.40;2.50;;;;;;;22.28;48.36;101542.98;110539;1264;22859;-86
2023/09/25 12:23:50;;;;;;;2.30;1.90;;;;;;;22.24;48.28;101539.36;110443;1263;22026;-85
2023/09/25 12:26:49;;;;;;;3.60;2.30;;;;;;;22.23;48.45;101540.83;110068;1270;22197;-83
2023/09/25 12:29:51;;;;;;;2.50;2.00;;;;;;;22.27;48.40;101532.41;109827;1270;21996;-85
2023/09/25 12:32:33;;;;;;;3.70;2.10;;;;;;;22.34;48.38;101532.70;109688;1270;21992;-83
2023/09/25 12:36:21;;;;;;;;;;;;;;;;;;;;;
2023/09/25 12:38:58;;;;;;;4.70;2.40;;;;;;;22.38;48.25;101530.61;109671;1270;22456;-86
2023/09/25 12:42:51;;;;;;;;;;;;;;;;;;;;;
2023/09/25 12:47:27;;;;;;;;;;;;;;;;;;;;;
2023/09/25 12:51:32;;;;;;;;;;;;;;;;;;;;;
2023/09/25 12:55:34;;;;;;;4.40;2.10;;;;;;;22.59;48.35;101526.16;108820;1282;22460;-87
2023/09/25 12:59:20;;;;;;;;;;;;;;;;;;;;;
2023/09/25 13:02:58;;;;;;;6.20;2.20;;;;;;;22.62;47.77;101526.65;108290;1291;22008;-82
2023/09/25 13:05:37;;;;;;;2.40;2.00;;;;;;;22.65;47.76;101526.63;108284;1290;23542;-85
2023/09/25 13:08:13;;;;;;;2.90;2.00;;;;;;;22.68;47.92;101523.38;108307;1291;22758;-86
2023/09/25 13:11:14;;;;;;;3.10;2.20;;;;;;;22.68;47.83;101523.77;108234;1291;22015;-86
2023/09/25 13:14:02;;;;;;;;;;;;;;;;;;;;;
2023/09/25 13:17:30;;;;;;;;;;;;;;;;;;;;;
2023/09/25 13:20:56;;;;;;;3.80;2.10;;;;;;;22.71;47.74;101516.82;107883;1294;22466;-86
2023/09/25 13:24:11;;;;;;;4.20;2.40;;;;;;;22.70;47.73;101511.57;107825;1294;22041;-85
2023/09/25 13:27:22;;;;;;;5.80;2.50;;;;;;;22.69;47.73;101507.19;107987;1288;23062;-87
2023/09/25 13:30:18;;;;;;;6.60;2.30;;;;;;;22.73;47.70;101507.75;108788;1276;21976;-86
2023/09/25 13:33:14;;;;;;;3.80;2.00;;;;;;;22.75;47.75;101512.43;109684;1269;22001;-84
2023/09/25 13:36:05;;;;;;;;;;;;;;;;;;;;;
2023/09/25 13:39:38;;;;;;;3.70;2.10;;;;;;;22.71;47.92;101510.98;109496;1272;21971;-85
2023/09/25 13:42:52;;;;;;;5.70;2.60;;;;;;;22.71;47.87;101512.70;109158;1276;24341;-85
2023/09/25 13:46:20;;;;;;;;;;;;;;;;;;;;;
2023/09/25 13:49:19;;;;;;;4.00;2.20;;;;;;;22.68;47.93;101506.38;109235;1275;23847;-85
2023/09/25 13:51:57;;;;;;;4.10;2.30;;;;;;;22.68;47.91;101502.31;109081;1275;21982;-84
2023/09/25 13:54:30;;;;;;;3.10;2.00;;;;;;;22.70;47.90;101503.01;109170;1275;23699;-87
2023/09/25 13:57:02;;;;;;;3.60;2.10;;;;;;;22.67;47.88;101504.63;109135;1275;23736;-84
2023/09/25 13:59:36;;;;;;;3.10;2.30;;;;;;;22.64;47.89;101502.91;108968;1278;23764;-84
2023/09/25 14:02:06;;;;;;;4.20;2.00;;;;;;;22.61;48.02;101501.36;109059;1278;23647;-85
2023/09/25 14:05:22;;;;;;;6.40;2.60;;;;;;;22.57;48.18;101499.66;109336;1278;22001;-86
2023/09/25 14:08:49;;;;;;;5.10;2.50;;;;;;;22.47;48.25;101496.11;109259;1275;22376;-83
2023/09/25 14:11:57;;;;;;;;;;;;;;;;;;;;;
2023/09/25 14:15:05;;;;;;;5.90;3.20;;;;;;;22.39;48.75;101494.20;109153;1278;23044;-88
2023/09/25 14:17:45;;;;;;;4.60;2.70;;;;;;;22.41;48.87;101492.31;109141;1279;23722;-87
2023/09/25 14:20:40;;;;;;;7.50;4.30;;;;;;;22.45;49.02;101492.03;108929;1278;21999;-87
2023/09/25 14:23:52;;;;;;;4.00;3.00;;;;;;;22.47;49.08;101493.28;108964;1273;22005;-87
2023/09/25 14:27:01;;;;;;;4.00;2.40;;;;;;;22.42;49.14;101489.92;109139;1279;22349;-86
2023/09/25 14:30:12;;;;;;;6.20;2.80;;;;;;;22.37;49.28;101486.02;108928;1279;21986;-87
2023/09/25 14:33:29;;;;;;;3.80;2.60;;;;;;;22.33;49.38;101483.41;109095;1274;23619;-82
2023/09/25 14:36:19;;;;;;;5.60;2.60;;;;;;;22.33;49.46;101483.60;109153;1279;22015;-82
2023/09/25 14:39:14;;;;;;;3.00;2.40;;;;;;;22.36;49.47;101488.20;109008;1274;22541;-84
2023/09/25 14:42:19;;;;;;;5.80;2.30;;;;;;;22.34;49.51;101490.27;109014;1277;23005;-81
2023/09/25 14:45:26;;;;;;;4.20;2.60;;;;;;;22.33;49.59;101493.01;109108;1278;23527;-82
2023/09/25 14:48:55;;;;;;;5.20;2.70;;;;;;;22.30;49.62;101497.48;109453;1267;22011;-82
2023/09/25 14:52:11;;;;;;;6.30;2.50;;;;;;;22.27;49.65;101501.05;109565;1272;22017;-83
2023/09/25 14:55:16;;;;;;;4.80;2.50;;;;;;;22.25;49.68;101502.92;109373;1275;22754;-80
2023/09/25 14:57:56;;;;;;;3.20;2.30;;;;;;;22.25;49.80;101503.64;109305;1274;22533;-80
2023/09/25 15:01:03;;;;;;;6.10;2.40;;;;;;;22.25;49.91;101500.61;109374;1273;23722;-82
2023/09/25 15:04:29;;;;;;;5.70;3.00;;;;;;;22.21;49.97;101502.51;109719;1268;21989;-82
2023/09/25 15:07:53;;;;;;;3.80;2.60;;;;;;;22.15;50.10;101495.42;110048;1268;21983;-80
2023/09/25 15:10:51;;;;;;;2.70;2.30;;;;;;;22.12;50.19;101502.57;109883;1273;23757;-80
2023/09/25 15:13:28;;;;;;;4.50;2.80;;;;;;;22.09;50.35;101502.23;109722;1265;22023;-81
2023/09/25 15:16:20;;;;;;;6.10;2.70;;;;;;;22.00;50.51;101490.79;109563;1270;23084;-78
2023/09/25 15:19:16;;;;;;;5.80;3.10;;;;;;;22.06;50.58;101498.90;109750;1271;22416;-79
2023/09/25 15:22:15;;;;;;;3.40;2.90;;;;;;;22.07;50.79;101501.70;109758;1271;23041;-78
2023/09/25 15:25:30;;;;;;;6.70;2.90;;;;;;;22.05;50.84;101498.98;109233;1273;22433;-82
2023/09/25 15:28:19;;;;;;;3.00;2.60;;;;;;;21.99;50.91;101500.82;109363;1276;22032;-81
2023/09/25 15:31:13;;;;;;;5.80;2.50;;;;;;;21.97;50.97;101500.38;109239;1276;21997;-81
2023/09/25 15:33:54;;;;;;;7.20;3.10;;;;;;;21.98;51.04;101498.90;108831;1280;21994;-82
2023/09/25 15:36:42;;;;;;;4.30;2.60;;;;;;;21.98;51.08;101500.01;109127;1271;23663;-82
2023/09/25 15:39:50;;;;;;;7.00;2.70;;;;;;;21.93;51.17;101494.62;108737;1282;22017;-81
2023/09/25 15:42:32;;;;;;;9.10;2.70;;;;;;;21.94;51.31;101492.30;108562;1280;21995;-80
2023/09/25 15:45:23;;;;;;;3.50;2.70;;;;;;;21.93;51.50;101491.47;108638;1282;22189;-80
2023/09/25 15:48:20;;;;;;;5.20;2.40;;;;;;;21.90;51.47;101487.27;108660;1282;22013;-82
2023/09/25 15:55:31;;;;;;;;;;;;;;;;;;;;;
2023/09/25 16:07:19;;;;;;;25.80;23.50;;;;;;;21.66;52.32;101478.70;109632;1275;21994;-81
2023/09/25 16:10:27;;;;;;;9.20;6.00;;;;;;;21.69;52.45;101475.55;109410;1275;21993;-83
2023/09/25 16:13:40;;;;;;;11.90;6.00;;;;;;;21.71;52.47;101470.80;109448;1271;23606;-82
2023/09/25 16:16:42;;;;;;;10.50;6.80;;;;;;;21.69;52.60;101469.86;109066;1274;22018;-84
2023/09/25 16:19:39;;;;;;;10.00;6.50;;;;;;;21.70;52.66;101474.23;109324;1275;21994;-85
2023/09/25 16:22:38;;;;;;;;;;;;;;;;;;;;;
2023/09/25 16:25:55;;;;;;;11.90;5.90;;;;;;;21.70;52.79;101477.23;110008;1268;22051;-82
2023/09/25 16:32:33;;;;;;;10.30;5.80;;;;;;;21.66;53.06;101476.45;109217;1278;23637;-81
2023/09/25 16:35:56;;;;;;;7.90;5.50;;;;;;;21.63;53.18;101476.67;109448;1275;24357;-82
2023/09/25 16:43:41;;;;;;;6.80;6.00;;;;;;;21.52;53.52;101477.73;108326;1290;22800;-83
2023/09/25 16:46:58;;;;;;;7.60;4.60;;;;;;;21.46;53.64;101485.71;108030;1294;22041;-82
2023/09/25 16:50:12;;;;;;;7.60;3.50;;;;;;;21.40;53.88;101489.98;107841;1293;22524;-82
2023/09/25 16:53:58;;;;;;;5.70;3.70;;;;;;;21.35;54.06;101488.92;107784;1294;23731;-82
2023/09/25 16:59:47;;;;;;;4.50;3.40;;;;;;;21.20;54.47;101484.56;107795;1295;22407;-80
2023/09/25 17:02:45;;;;;;;10.10;4.10;;;;;;;21.18;54.64;101487.14;108155;1282;22523;-81
2023/09/25 17:06:11;;;;;;;9.80;3.90;;;;;;;21.11;54.91;101485.46;108783;1282;23087;-81
2023/09/25 17:09:48;;;;;;;7.10;4.20;;;;;;;21.03;55.15;101488.97;108567;1286;22349;-84
2023/09/25 17:12:58;;;;;;;5.70;3.80;;;;;;;20.98;55.49;101496.38;108522;1286;21989;-83
2023/09/25 17:15:59;;;;;;;21.70;19.60;;;;;;;20.98;55.71;101494.42;108393;1287;21843;-82
2023/09/25 17:18:35;;;;;;;8.10;6.30;;;;;;;20.97;55.68;101497.33;108488;1276;21982;-83
2023/09/25 17:22:30;;;;;;;8.90;5.90;;;;;;;20.91;55.77;101497.04;108375;1288;23154;-83
2023/09/25 17:26:29;;;;;;;;;;;;;;;;;;;;;
2023/09/25 17:29:34;;;;;;;8.00;6.30;;;;;;;20.74;56.48;101491.58;108280;1289;22051;-83
2023/09/25 17:32:39;;;;;;;12.00;8.30;;;;;;;20.66;56.61;101489.59;108728;1282;23888;-82
2023/09/25 17:36:27;;;;;;;;;;;;;;;;;;;;;
2023/09/25 17:39:46;;;;;;;12.80;8.00;;;;;;;20.46;57.12;101486.16;108803;1278;21979;-83
2023/09/25 17:43:47;;;;;;;;;;;;;;;;;;;;;
2023/09/25 17:47:27;;;;;;;11.50;6.40;;;;;;;20.24;57.85;101482.56;109127;1279;23065;-82
2023/09/25 17:51:12;;;;;;;12.10;7.10;;;;;;;20.16;58.07;101485.83;108827;1283;22010;-83
2023/09/25 17:54:05;;;;;;;12.00;7.40;;;;;;;20.14;58.25;101486.50;108662;1283;22006;-82
2023/09/25 17:57:10;;;;;;;11.70;7.70;;;;;;;20.13;58.48;101487.09;108727;1271;22009;-80
2023/09/25 18:00:04;;;;;;;11.60;7.70;;;;;;;20.11;58.80;101483.47;108575;1286;23660;-82
2023/09/25 18:02:45;;;;;;;11.60;7.00;;;;;;;20.10;58.64;101486.02;108785;1280;21993;-81
2023/09/25 18:05:22;;;;;;;14.30;8.70;;;;;;;20.11;58.63;101484.02;108711;1280;23224;-80
2023/09/25 18:08:19;;;;;;;19.30;16.20;;;;;;;20.11;58.85;101482.07;108906;1275;24323;-80
2023/09/25 18:10:57;;;;;;;10.70;6.70;;;;;;;20.09;58.96;101483.61;109067;1277;22097;-81
2023/09/25 18:17:34;;;;;;;13.30;7.80;;;;;;;20.05;59.24;101491.80;110335;1264;22052;-81
2023/09/25 18:20:34;;;;;;;14.80;12.80;;;;;;;20.04;59.28;101490.07;110356;1262;22013;-81
2023/09/25 18:23:55;;;;;;;14.30;10.20;;;;;;;20.02;59.27;101490.42;110405;1261;21968;-83